sensor_id;sensor_type;location;lat;lon;timestamp;pressure;altitude;pressure_sealevel;temperature;humidity
26823;BME280;14852;51.910;8.878;2022-07-01T00:02:19;99490.50;;;20.39;58.49
26823;BME280;14852;51.910;8.878;2022-07-01T00:04:44;99502.03;;;20.38;58.15
26823;BME280;14852;51.910;8.878;2022-07-01T00:07:29;99511.31;;;20.32;58.58
26823;BME280;14852;51.910;8.878;2022-07-01T00:09:55;99517.75;;;20.30;58.29
26823;BME280;14852;51.910;8.878;2022-07-01T00:12:20;99519.56;;;20.29;58.48
26823;BME280;14852;51.910;8.878;2022-07-01T00:14:46;99502.66;;;20.22;58.34
26823;BME280;14852;51.910;8.878;2022-07-01T00:17:12;99517.41;;;20.15;58.97
26823;BME280;14852;51.910;8.878;2022-07-01T00:19:38;99530.88;;;20.12;58.68
26823;BME280;14852;51.910;8.878;2022-07-01T00:22:04;99531.88;;;20.11;58.76
26823;BME280;14852;51.910;8.878;2022-07-01T00:24:29;99532.84;;;20.10;59.05
26823;BME280;14852;51.910;8.878;2022-07-01T00:26:55;99513.84;;;20.06;58.83
26823;BME280;14852;51.910;8.878;2022-07-01T00:29:21;99501.66;;;20.05;59.11
26823;BME280;14852;51.910;8.878;2022-07-01T00:31:46;99503.31;;;20.06;59.04
26823;BME280;14852;51.910;8.878;2022-07-01T00:34:12;99517.31;;;20.07;58.68
26823;BME280;14852;51.910;8.878;2022-07-01T00:36:38;99517.84;;;20.10;58.95
26823;BME280;14852;51.910;8.878;2022-07-01T00:39:04;99523.25;;;20.09;58.81
26823;BME280;14852;51.910;8.878;2022-07-01T00:41:30;99531.16;;;20.09;58.90
26823;BME280;14852;51.910;8.878;2022-07-01T00:43:55;99522.75;;;20.05;58.77
26823;BME280;14852;51.910;8.878;2022-07-01T00:46:24;99530.09;;;20.02;59.09
26823;BME280;14852;51.910;8.878;2022-07-01T00:48:55;99527.91;;;19.97;59.37
26823;BME280;14852;51.910;8.878;2022-07-01T00:51:22;99531.81;;;19.93;59.34
26823;BME280;14852;51.910;8.878;2022-07-01T00:53:48;99542.78;;;19.88;59.29
26823;BME280;14852;51.910;8.878;2022-07-01T00:56:14;99551.94;;;19.84;59.34
26823;BME280;14852;51.910;8.878;2022-07-01T00:58:40;99552.53;;;19.78;59.37
26823;BME280;14852;51.910;8.878;2022-07-01T01:01:06;99545.06;;;19.74;59.49
26823;BME280;14852;51.910;8.878;2022-07-01T01:03:31;99549.66;;;19.72;59.49
26823;BME280;14852;51.910;8.878;2022-07-01T01:05:57;99550.78;;;19.69;59.09
26823;BME280;14852;51.910;8.878;2022-07-01T01:08:24;99550.78;;;19.69;59.06
26823;BME280;14852;51.910;8.878;2022-07-01T01:10:52;99559.06;;;19.74;58.92
26823;BME280;14852;51.910;8.878;2022-07-01T01:13:18;99552.13;;;19.73;59.26
26823;BME280;14852;51.910;8.878;2022-07-01T01:15:44;99547.31;;;19.69;59.01
26823;BME280;14852;51.910;8.878;2022-07-01T01:18:10;99554.94;;;19.62;59.11
26823;BME280;14852;51.910;8.878;2022-07-01T01:20:37;99554.81;;;19.54;58.93
26823;BME280;14852;51.910;8.878;2022-07-01T01:23:03;99551.91;;;19.47;59.64
26823;BME280;14852;51.910;8.878;2022-07-01T01:25:33;99562.03;;;19.42;59.24
26823;BME280;14852;51.910;8.878;2022-07-01T01:28:00;99564.78;;;19.41;59.72
26823;BME280;14852;51.910;8.878;2022-07-01T01:30:26;99551.22;;;19.36;59.19
26823;BME280;14852;51.910;8.878;2022-07-01T01:32:52;99548.72;;;19.34;59.85
26823;BME280;14852;51.910;8.878;2022-07-01T01:35:19;99533.78;;;19.25;59.48
26823;BME280;14852;51.910;8.878;2022-07-01T01:37:45;99543.75;;;19.22;59.72
26823;BME280;14852;51.910;8.878;2022-07-01T01:40:11;99564.25;;;19.18;59.76
26823;BME280;14852;51.910;8.878;2022-07-01T01:42:41;99556.81;;;19.13;59.84
26823;BME280;14852;51.910;8.878;2022-07-01T01:45:07;99557.91;;;19.11;59.68
26823;BME280;14852;51.910;8.878;2022-07-01T01:47:33;99572.03;;;19.10;59.43
26823;BME280;14852;51.910;8.878;2022-07-01T01:49:59;99574.25;;;19.05;59.72
26823;BME280;14852;51.910;8.878;2022-07-01T01:52:25;99571.22;;;19.00;59.44
26823;BME280;14852;51.910;8.878;2022-07-01T01:54:51;99566.06;;;18.98;59.68
26823;BME280;14852;51.910;8.878;2022-07-01T01:57:16;99566.47;;;18.94;59.80
26823;BME280;14852;51.910;8.878;2022-07-01T01:59:42;99566.06;;;18.89;59.56
26823;BME280;14852;51.910;8.878;2022-07-01T02:02:08;99564.81;;;18.83;59.62
26823;BME280;14852;51.910;8.878;2022-07-01T02:04:34;99563.56;;;18.77;60.33
26823;BME280;14852;51.910;8.878;2022-07-01T02:07:00;99574.50;;;18.73;60.29
26823;BME280;14852;51.910;8.878;2022-07-01T02:09:26;99577.41;;;18.70;60.20
26823;BME280;14852;51.910;8.878;2022-07-01T02:11:53;99587.94;;;18.70;59.88
26823;BME280;14852;51.910;8.878;2022-07-01T02:14:20;99596.66;;;18.70;60.25
26823;BME280;14852;51.910;8.878;2022-07-01T02:16:45;99599.44;;;18.69;60.17
26823;BME280;14852;51.910;8.878;2022-07-01T02:19:11;99599.72;;;18.66;60.17
26823;BME280;14852;51.910;8.878;2022-07-01T02:21:37;99607.75;;;18.64;59.87
26823;BME280;14852;51.910;8.878;2022-07-01T02:24:03;99614.66;;;18.65;59.83
26823;BME280;14852;51.910;8.878;2022-07-01T02:26:28;99609.78;;;18.61;59.98
26823;BME280;14852;51.910;8.878;2022-07-01T02:28:54;99627.97;;;18.64;60.52
26823;BME280;14852;51.910;8.878;2022-07-01T02:31:20;99636.25;;;18.59;60.19
26823;BME280;14852;51.910;8.878;2022-07-01T02:33:46;99642.34;;;18.60;60.20
26823;BME280;14852;51.910;8.878;2022-07-01T02:36:12;99639.56;;;18.61;60.43
26823;BME280;14852;51.910;8.878;2022-07-01T02:38:38;99636.69;;;18.64;60.33
26823;BME280;14852;51.910;8.878;2022-07-01T02:41:03;99639.06;;;18.67;59.88
26823;BME280;14852;51.910;8.878;2022-07-01T02:43:29;99640.56;;;18.70;59.86
26823;BME280;14852;51.910;8.878;2022-07-01T02:45:57;99649.03;;;18.73;59.78
26823;BME280;14852;51.910;8.878;2022-07-01T02:48:23;99655.38;;;18.71;60.02
26823;BME280;14852;51.910;8.878;2022-07-01T02:50:49;99662.75;;;18.67;59.90
26823;BME280;14852;51.910;8.878;2022-07-01T02:53:15;99669.94;;;18.65;60.02
26823;BME280;14852;51.910;8.878;2022-07-01T02:55:40;99673.53;;;18.64;59.68
26823;BME280;14852;51.910;8.878;2022-07-01T02:58:07;99670.31;;;18.61;59.93
26823;BME280;14852;51.910;8.878;2022-07-01T03:00:32;99670.06;;;18.64;60.02
26823;BME280;14852;51.910;8.878;2022-07-01T03:02:58;99671.72;;;18.65;60.12
26823;BME280;14852;51.910;8.878;2022-07-01T03:05:24;99681.16;;;18.67;59.71
26823;BME280;14852;51.910;8.878;2022-07-01T03:07:50;99679.50;;;18.66;60.15
26823;BME280;14852;51.910;8.878;2022-07-01T03:10:16;99681.16;;;18.67;60.10
26823;BME280;14852;51.910;8.878;2022-07-01T03:12:42;99672.31;;;18.68;59.66
26823;BME280;14852;51.910;8.878;2022-07-01T03:15:15;99682.25;;;18.65;59.86
26823;BME280;14852;51.910;8.878;2022-07-01T03:17:42;99694.31;;;18.67;59.44
26823;BME280;14852;51.910;8.878;2022-07-01T03:20:12;99685.53;;;18.57;60.06
26823;BME280;14852;51.910;8.878;2022-07-01T03:22:39;99687.34;;;18.57;59.99
26823;BME280;14852;51.910;8.878;2022-07-01T03:25:06;99686.50;;;18.56;60.23
26823;BME280;14852;51.910;8.878;2022-07-01T03:27:33;99685.66;;;18.56;60.52
26823;BME280;14852;51.910;8.878;2022-07-01T03:29:59;99704.22;;;18.54;60.27
26823;BME280;14852;51.910;8.878;2022-07-01T03:32:25;99701.84;;;18.51;60.05
26823;BME280;14852;51.910;8.878;2022-07-01T03:34:52;99697.66;;;18.49;60.37
26823;BME280;14852;51.910;8.878;2022-07-01T03:37:20;99693.22;;;18.49;60.50
26823;BME280;14852;51.910;8.878;2022-07-01T03:39:47;99694.06;;;18.50;60.47
26823;BME280;14852;51.910;8.878;2022-07-01T03:42:13;99688.69;;;18.51;60.46
26823;BME280;14852;51.910;8.878;2022-07-01T03:44:39;99679.13;;;18.50;60.56
26823;BME280;14852;51.910;8.878;2022-07-01T03:47:05;99691.31;;;18.51;60.75
26823;BME280;14852;51.910;8.878;2022-07-01T03:49:35;99695.88;;;18.49;60.66
26823;BME280;14852;51.910;8.878;2022-07-01T03:52:03;99694.06;;;18.50;60.70
26823;BME280;14852;51.910;8.878;2022-07-01T03:54:29;99695.16;;;18.47;60.72
26823;BME280;14852;51.910;8.878;2022-07-01T03:57:04;99696.00;;;18.48;60.48
26823;BME280;14852;51.910;8.878;2022-07-01T03:59:32;99696.81;;;18.48;60.84
26823;BME280;14852;51.910;8.878;2022-07-01T04:01:59;99703.75;;;18.49;60.48
26823;BME280;14852;51.910;8.878;2022-07-01T04:04:27;99703.63;;;18.51;60.65
26823;BME280;14852;51.910;8.878;2022-07-01T04:06:54;99703.50;;;18.52;60.65
26823;BME280;14852;51.910;8.878;2022-07-01T04:09:21;99706.72;;;18.56;60.54
26823;BME280;14852;51.910;8.878;2022-07-01T04:11:48;99706.59;;;18.57;60.70
26823;BME280;14852;51.910;8.878;2022-07-01T04:14:15;99712.94;;;18.55;60.19
26823;BME280;14852;51.910;8.878;2022-07-01T04:16:41;99714.72;;;18.54;60.45
26823;BME280;14852;51.910;8.878;2022-07-01T04:19:08;99717.25;;;18.56;60.63
26823;BME280;14852;51.910;8.878;2022-07-01T04:21:38;99717.25;;;18.56;60.91
26823;BME280;14852;51.910;8.878;2022-07-01T04:24:23;99710.19;;;18.56;60.37
26823;BME280;14852;51.910;8.878;2022-07-01T04:26:50;99716.41;;;18.55;60.60
26823;BME280;14852;51.910;8.878;2022-07-01T04:29:16;99712.09;;;18.54;60.66
26823;BME280;14852;51.910;8.878;2022-07-01T04:31:42;99709.47;;;18.54;60.60
26823;BME280;14852;51.910;8.878;2022-07-01T04:34:08;99716.41;;;18.55;60.61
26823;BME280;14852;51.910;8.878;2022-07-01T04:36:35;99711.00;;;18.57;60.40
26823;BME280;14852;51.910;8.878;2022-07-01T04:39:02;99708.13;;;18.60;60.49
26823;BME280;14852;51.910;8.878;2022-07-01T04:41:29;99710.13;;;18.67;60.16
26823;BME280;14852;51.910;8.878;2022-07-01T04:44:13;99704.19;;;18.75;60.66
26823;BME280;14852;51.910;8.878;2022-07-01T04:46:39;99729.41;;;18.77;59.90
26823;BME280;14852;51.910;8.878;2022-07-01T04:49:05;99732.88;;;18.78;59.98
26823;BME280;14852;51.910;8.878;2022-07-01T04:51:31;99726.06;;;18.75;59.99
26823;BME280;14852;51.910;8.878;2022-07-01T04:54:03;99719.72;;;18.78;60.60
26823;BME280;14852;51.910;8.878;2022-07-01T04:56:29;99716.13;;;18.79;60.37
26823;BME280;14852;51.910;8.878;2022-07-01T04:58:55;99710.84;;;18.79;60.54
26823;BME280;14852;51.910;8.878;2022-07-01T05:01:21;99709.72;;;18.81;60.39
26823;BME280;14852;51.910;8.878;2022-07-01T05:03:48;99714.88;;;18.83;60.00
26823;BME280;14852;51.910;8.878;2022-07-01T05:06:14;99726.53;;;18.80;60.14
26823;BME280;14852;51.910;8.878;2022-07-01T05:08:40;99729.00;;;18.82;59.91
26823;BME280;14852;51.910;8.878;2022-07-01T05:11:06;99726.81;;;18.87;60.34
26823;BME280;14852;51.910;8.878;2022-07-01T05:13:32;99732.66;;;18.91;60.28
26823;BME280;14852;51.910;8.878;2022-07-01T05:16:02;99732.34;;;18.94;60.17
26823;BME280;14852;51.910;8.878;2022-07-01T05:18:28;99721.00;;;18.93;59.95
26823;BME280;14852;51.910;8.878;2022-07-01T05:21:13;99721.69;;;18.95;60.09
26823;BME280;14852;51.910;8.878;2022-07-01T05:23:58;99731.25;;;18.96;60.22
26823;BME280;14852;51.910;8.878;2022-07-01T05:26:24;99731.00;;;18.99;60.38
26823;BME280;14852;51.910;8.878;2022-07-01T05:28:52;99737.69;;;19.03;59.75
26823;BME280;14852;51.910;8.878;2022-07-01T05:31:19;99738.19;;;18.97;59.80
26823;BME280;14852;51.910;8.878;2022-07-01T05:33:45;99738.31;;;18.96;59.73
26823;BME280;14852;51.910;8.878;2022-07-01T05:36:11;99740.97;;;18.96;60.07
26823;BME280;14852;51.910;8.878;2022-07-01T05:38:37;99749.69;;;18.96;59.68
26823;BME280;14852;51.910;8.878;2022-07-01T05:41:03;99757.31;;;18.90;59.94
26823;BME280;14852;51.910;8.878;2022-07-01T05:43:29;99761.72;;;18.89;59.84
26823;BME280;14852;51.910;8.878;2022-07-01T05:45:56;99758.13;;;18.90;60.23
26823;BME280;14852;51.910;8.878;2022-07-01T05:48:22;99759.09;;;18.89;60.11
26823;BME280;14852;51.910;8.878;2022-07-01T05:50:49;99755.38;;;18.92;59.73
26823;BME280;14852;51.910;8.878;2022-07-01T05:53:16;99761.44;;;18.92;59.99
26823;BME280;14852;51.910;8.878;2022-07-01T05:55:41;99766.59;;;18.94;59.74
26823;BME280;14852;51.910;8.878;2022-07-01T05:58:10;99771.72;;;18.95;60.08
26823;BME280;14852;51.910;8.878;2022-07-01T06:00:36;99764.78;;;18.94;59.63
26823;BME280;14852;51.910;8.878;2022-07-01T06:03:01;99762.72;;;18.98;59.22
26823;BME280;14852;51.910;8.878;2022-07-01T06:05:27;99758.16;;;19.00;59.48
26823;BME280;14852;51.910;8.878;2022-07-01T06:07:55;99766.19;;;18.98;59.21
26823;BME280;14852;51.910;8.878;2022-07-01T06:10:21;99765.38;;;18.98;59.33
26823;BME280;14852;51.910;8.878;2022-07-01T06:12:46;99766.31;;;18.97;59.73
26823;BME280;14852;51.910;8.878;2022-07-01T06:15:12;99770.88;;;18.95;59.47
26823;BME280;14852;51.910;8.878;2022-07-01T06:17:40;99769.22;;;18.94;59.59
26823;BME280;14852;51.910;8.878;2022-07-01T06:20:07;99759.38;;;18.96;59.69
26823;BME280;14852;51.910;8.878;2022-07-01T06:22:34;99754.97;;;18.96;59.42
26823;BME280;14852;51.910;8.878;2022-07-01T06:25:00;99756.63;;;18.97;59.50
26823;BME280;14852;51.910;8.878;2022-07-01T06:27:27;99756.63;;;18.97;59.80
26823;BME280;14852;51.910;8.878;2022-07-01T06:29:52;99759.72;;;19.02;59.82
26823;BME280;14852;51.910;8.878;2022-07-01T06:32:18;99739.31;;;19.04;59.38
26823;BME280;14852;51.910;8.878;2022-07-01T06:34:45;99727.94;;;19.04;59.87
26823;BME280;14852;51.910;8.878;2022-07-01T06:37:11;99727.81;;;19.05;59.69
26823;BME280;14852;51.910;8.878;2022-07-01T06:39:38;99751.81;;;19.02;59.41
26823;BME280;14852;51.910;8.878;2022-07-01T06:42:04;99759.25;;;18.97;59.67
26823;BME280;14852;51.910;8.878;2022-07-01T06:44:30;99758.56;;;18.95;59.51
26823;BME280;14852;51.910;8.878;2022-07-01T06:46:56;99762.84;;;18.96;60.12
26823;BME280;14852;51.910;8.878;2022-07-01T06:49:21;99775.91;;;18.98;59.85
26823;BME280;14852;51.910;8.878;2022-07-01T06:51:47;99791.00;;;18.96;59.74
26823;BME280;14852;51.910;8.878;2022-07-01T06:54:13;99795.00;;;18.90;59.69
26823;BME280;14852;51.910;8.878;2022-07-01T06:56:39;99801.09;;;18.91;60.23
26823;BME280;14852;51.910;8.878;2022-07-01T06:59:05;99804.16;;;18.96;60.01
26823;BME280;14852;51.910;8.878;2022-07-01T07:01:30;99803.91;;;18.99;60.01
26823;BME280;14852;51.910;8.878;2022-07-01T07:03:56;99800.31;;;19.00;60.16
26823;BME280;14852;51.910;8.878;2022-07-01T07:06:22;99801.84;;;19.02;59.94
26823;BME280;14852;51.910;8.878;2022-07-01T07:08:48;99799.75;;;19.06;59.96
26823;BME280;14852;51.910;8.878;2022-07-01T07:11:14;99794.50;;;19.06;59.87
26823;BME280;14852;51.910;8.878;2022-07-01T07:13:42;99793.66;;;19.05;60.13
26823;BME280;14852;51.910;8.878;2022-07-01T07:16:08;99794.50;;;19.06;59.89
26823;BME280;14852;51.910;8.878;2022-07-01T07:18:34;99808.94;;;19.11;60.00
26823;BME280;14852;51.910;8.878;2022-07-01T07:20:59;99808.25;;;19.19;60.12
26823;BME280;14852;51.910;8.878;2022-07-01T07:23:25;99792.78;;;19.26;59.59
26823;BME280;14852;51.910;8.878;2022-07-01T07:25:51;99802.38;;;19.36;59.87
26823;BME280;14852;51.910;8.878;2022-07-01T07:28:17;99804.06;;;19.47;59.43
26823;BME280;14852;51.910;8.878;2022-07-01T07:30:43;99797.16;;;19.65;59.41
26823;BME280;14852;51.910;8.878;2022-07-01T07:33:08;99803.56;;;19.82;58.73
26823;BME280;14852;51.910;8.878;2022-07-01T07:35:34;99809.94;;;19.89;58.42
26823;BME280;14852;51.910;8.878;2022-07-01T07:38:00;99811.75;;;19.98;58.82
26823;BME280;14852;51.910;8.878;2022-07-01T07:40:26;99814.94;;;20.02;58.53
26823;BME280;14852;51.910;8.878;2022-07-01T07:42:52;99829.94;;;20.01;58.57
26823;BME280;14852;51.910;8.878;2022-07-01T07:45:17;99826.88;;;19.96;58.86
26823;BME280;14852;51.910;8.878;2022-07-01T07:47:45;99835.22;;;19.92;58.39
26823;BME280;14852;51.910;8.878;2022-07-01T07:50:12;99848.66;;;19.88;58.73
26823;BME280;14852;51.910;8.878;2022-07-01T07:52:39;99846.84;;;19.79;58.65
26823;BME280;14852;51.910;8.878;2022-07-01T07:55:07;99852.41;;;19.76;58.91
26823;BME280;14852;51.910;8.878;2022-07-01T07:57:35;99863.06;;;19.75;58.66
26823;BME280;14852;51.910;8.878;2022-07-01T08:00:01;99868.91;;;19.78;58.56
26823;BME280;14852;51.910;8.878;2022-07-01T08:02:38;99857.97;;;19.83;58.71
26823;BME280;14852;51.910;8.878;2022-07-01T08:05:04;99869.91;;;19.97;58.38
26823;BME280;14852;51.910;8.878;2022-07-01T08:07:36;99863.25;;;20.12;58.13
26823;BME280;14852;51.910;8.878;2022-07-01T08:10:08;99863.13;;;20.23;57.82
26823;BME280;14852;51.910;8.878;2022-07-01T08:12:34;99849.09;;;20.32;57.76
26823;BME280;14852;51.910;8.878;2022-07-01T08:15:00;99857.88;;;20.52;57.76
26823;BME280;14852;51.910;8.878;2022-07-01T08:17:26;99854.91;;;20.74;56.88
26823;BME280;14852;51.910;8.878;2022-07-01T08:19:52;99866.13;;;20.86;56.91
26823;BME280;14852;51.910;8.878;2022-07-01T08:22:18;99877.94;;;20.91;57.01
26823;BME280;14852;51.910;8.878;2022-07-01T08:24:45;99884.84;;;21.02;56.43
26823;BME280;14852;51.910;8.878;2022-07-01T08:27:11;99889.16;;;21.03;56.77
26823;BME280;14852;51.910;8.878;2022-07-01T08:29:38;99882.72;;;21.15;56.37
26823;BME280;14852;51.910;8.878;2022-07-01T08:32:05;99882.72;;;21.25;56.54
26823;BME280;14852;51.910;8.878;2022-07-01T08:34:31;99892.06;;;21.19;56.25
26823;BME280;14852;51.910;8.878;2022-07-01T08:36:57;99892.91;;;21.10;56.58
26823;BME280;14852;51.910;8.878;2022-07-01T08:39:23;99901.28;;;20.96;57.05
26823;BME280;14852;51.910;8.878;2022-07-01T08:41:49;99892.81;;;20.92;56.92
26823;BME280;14852;51.910;8.878;2022-07-01T08:44:14;99894.44;;;21.03;56.69
26823;BME280;14852;51.910;8.878;2022-07-01T08:46:40;99895.41;;;21.21;56.53
26823;BME280;14852;51.910;8.878;2022-07-01T08:49:06;99895.25;;;21.50;55.57
26823;BME280;14852;51.910;8.878;2022-07-01T08:51:32;99905.34;;;21.64;54.79
26823;BME280;14852;51.910;8.878;2022-07-01T08:53:58;99907.03;;;21.65;55.22
26823;BME280;14852;51.910;8.878;2022-07-01T08:56:24;99906.66;;;21.51;55.00
26823;BME280;14852;51.910;8.878;2022-07-01T08:59:26;99923.97;;;21.36;55.40
26823;BME280;14852;51.910;8.878;2022-07-01T09:01:58;99928.22;;;21.19;55.49
26823;BME280;14852;51.910;8.878;2022-07-01T09:04:24;99928.09;;;21.01;55.52
26823;BME280;14852;51.910;8.878;2022-07-01T09:06:50;99923.25;;;20.96;56.05
26823;BME280;14852;51.910;8.878;2022-07-01T09:09:21;99928.63;;;21.05;55.82
26823;BME280;14852;51.910;8.878;2022-07-01T09:11:53;99933.50;;;21.19;55.52
26823;BME280;14852;51.910;8.878;2022-07-01T09:14:25;99942.94;;;21.31;55.28
26823;BME280;14852;51.910;8.878;2022-07-01T09:16:55;99941.03;;;21.51;54.94
26823;BME280;14852;51.910;8.878;2022-07-01T09:19:25;99938.84;;;21.74;54.51
26823;BME280;14852;51.910;8.878;2022-07-01T09:21:59;99937.56;;;22.05;53.92
26823;BME280;14852;51.910;8.878;2022-07-01T09:24:41;99935.78;;;22.23;53.71
26823;BME280;14852;51.910;8.878;2022-07-01T09:27:11;99934.75;;;22.34;53.24
26823;BME280;14852;51.910;8.878;2022-07-01T09:29:41;99946.69;;;22.56;52.36
26823;BME280;14852;51.910;8.878;2022-07-01T09:32:10;99949.09;;;22.67;51.65
26823;BME280;14852;51.910;8.878;2022-07-01T09:34:45;99947.06;;;22.79;52.22
26823;BME280;14852;51.910;8.878;2022-07-01T09:37:17;99946.41;;;23.02;51.42
26823;BME280;14852;51.910;8.878;2022-07-01T09:39:55;99942.31;;;23.34;51.48
26823;BME280;14852;51.910;8.878;2022-07-01T09:42:24;99948.13;;;23.63;50.42
26823;BME280;14852;51.910;8.878;2022-07-01T09:45:19;99929.66;;;23.88;50.24
26823;BME280;14852;51.910;8.878;2022-07-01T09:47:44;99941.13;;;23.96;50.08
26823;BME280;14852;51.910;8.878;2022-07-01T09:50:13;99929.66;;;23.96;49.69
26823;BME280;14852;51.910;8.878;2022-07-01T09:52:39;99928.16;;;23.93;49.97
26823;BME280;14852;51.910;8.878;2022-07-01T09:55:06;99926.34;;;23.94;49.57
26823;BME280;14852;51.910;8.878;2022-07-01T09:57:33;99923.31;;;23.89;49.60
26823;BME280;14852;51.910;8.878;2022-07-01T09:59:59;99915.72;;;23.86;50.26
26823;BME280;14852;51.910;8.878;2022-07-01T10:02:27;99923.31;;;23.89;49.97
26823;BME280;14852;51.910;8.878;2022-07-01T10:05:02;99907.59;;;23.87;49.18
26823;BME280;14852;51.910;8.878;2022-07-01T10:08:10;99908.91;;;23.83;49.73
26823;BME280;14852;51.910;8.878;2022-07-01T10:11:01;99908.44;;;23.96;49.99
26823;BME280;14852;51.910;8.878;2022-07-01T10:13:33;99904.31;;;24.09;49.03
26823;BME280;14852;51.910;8.878;2022-07-01T10:16:03;99903.03;;;24.30;48.66
26823;BME280;14852;51.910;8.878;2022-07-01T10:18:29;99900.06;;;24.33;47.90
26823;BME280;14852;51.910;8.878;2022-07-01T10:20:58;99905.22;;;24.34;48.17
26823;BME280;14852;51.910;8.878;2022-07-01T10:23:37;99887.13;;;24.54;48.20
26823;BME280;14852;51.910;8.878;2022-07-01T10:26:04;99880.81;;;24.55;47.00
26823;BME280;14852;51.910;8.878;2022-07-01T10:28:42;99894.94;;;24.56;48.00
26823;BME280;14852;51.910;8.878;2022-07-01T10:31:14;99885.13;;;24.56;47.02
26823;BME280;14852;51.910;8.878;2022-07-01T10:36:35;99891.75;;;24.93;47.41
26823;BME280;14852;51.910;8.878;2022-07-01T10:41:37;99892.66;;;25.32;45.73
26823;BME280;14852;51.910;8.878;2022-07-01T10:44:13;99891.59;;;25.41;47.29
26823;BME280;14852;51.910;8.878;2022-07-01T10:47:04;99890.22;;;25.53;46.01
26823;BME280;14852;51.910;8.878;2022-07-01T10:52:08;99891.47;;;25.74;45.26
26823;BME280;14852;51.910;8.878;2022-07-01T11:00:25;99896.72;;;25.51;45.23
26823;BME280;14852;51.910;8.878;2022-07-01T11:02:42;99901.78;;;25.38;44.71
26823;BME280;14852;51.910;8.878;2022-07-01T11:05:13;99916.59;;;25.32;44.70
26823;BME280;14852;51.910;8.878;2022-07-01T11:07:42;99918.91;;;25.27;44.32
26823;BME280;14852;51.910;8.878;2022-07-01T11:10:12;99916.44;;;25.25;44.81
26823;BME280;14852;51.910;8.878;2022-07-01T11:12:41;99918.91;;;25.35;44.43
26823;BME280;14852;51.910;8.878;2022-07-01T11:15:10;99922.84;;;25.47;44.69
26823;BME280;14852;51.910;8.878;2022-07-01T11:17:49;99924.69;;;25.39;44.19
26823;BME280;14852;51.910;8.878;2022-07-01T11:20:15;99927.63;;;25.13;44.88
26823;BME280;14852;51.910;8.878;2022-07-01T11:22:41;99941.75;;;24.97;44.96
26823;BME280;14852;51.910;8.878;2022-07-01T11:25:10;99940.75;;;24.90;44.66
26823;BME280;14852;51.910;8.878;2022-07-01T11:27:38;99940.56;;;24.75;45.09
26823;BME280;14852;51.910;8.878;2022-07-01T11:30:10;99935.44;;;24.74;45.29
26823;BME280;14852;51.910;8.878;2022-07-01T11:32:46;99927.78;;;24.71;45.60
26823;BME280;14852;51.910;8.878;2022-07-01T11:35:22;99934.09;;;24.62;45.27
26823;BME280;14852;51.910;8.878;2022-07-01T11:38:19;99933.91;;;24.39;45.27
26823;BME280;14852;51.910;8.878;2022-07-01T11:41:19;99929.59;;;24.30;45.30
26823;BME280;14852;51.910;8.878;2022-07-01T11:43:46;99948.78;;;24.15;45.29
26823;BME280;14852;51.910;8.878;2022-07-01T11:46:12;99940.97;;;24.06;45.66
26823;BME280;14852;51.910;8.878;2022-07-01T11:48:45;99935.81;;;24.04;46.17
26823;BME280;14852;51.910;8.878;2022-07-01T11:51:21;99944.78;;;24.03;45.89
26823;BME280;14852;51.910;8.878;2022-07-01T11:53:49;99941.66;;;24.16;46.00
26823;BME280;14852;51.910;8.878;2022-07-01T11:56:26;99943.72;;;24.30;45.60
26823;BME280;14852;51.910;8.878;2022-07-01T11:58:53;99938.91;;;24.42;45.02
26823;BME280;14852;51.910;8.878;2022-07-01T12:01:28;99946.72;;;24.60;45.21
26823;BME280;14852;51.910;8.878;2022-07-01T12:03:58;99947.72;;;24.59;44.12
26823;BME280;14852;51.910;8.878;2022-07-01T12:06:26;99944.88;;;24.52;44.06
26823;BME280;14852;51.910;8.878;2022-07-01T12:08:52;99952.19;;;24.58;43.84
26823;BME280;14852;51.910;8.878;2022-07-01T12:11:20;99951.03;;;24.61;43.27
26823;BME280;14852;51.910;8.878;2022-07-01T12:13:48;99953.84;;;24.59;43.75
26823;BME280;14852;51.910;8.878;2022-07-01T12:16:14;99949.72;;;24.57;43.43
26823;BME280;14852;51.910;8.878;2022-07-01T12:19:01;99966.31;;;24.50;43.91
26823;BME280;14852;51.910;8.878;2022-07-01T12:21:29;99972.94;;;24.38;43.28
26823;BME280;14852;51.910;8.878;2022-07-01T12:24:14;99974.91;;;24.28;44.58
26823;BME280;14852;51.910;8.878;2022-07-01T12:29:29;99961.22;;;24.07;44.67
26823;BME280;14852;51.910;8.878;2022-07-01T12:32:16;99953.41;;;24.05;44.18
26823;BME280;14852;51.910;8.878;2022-07-01T12:34:59;99955.38;;;24.03;44.15
26823;BME280;14852;51.910;8.878;2022-07-01T12:37:29;99964.69;;;24.07;44.24
26823;BME280;14852;51.910;8.878;2022-07-01T12:40:05;99957.25;;;24.11;43.92
26823;BME280;14852;51.910;8.878;2022-07-01T12:42:43;99947.19;;;24.31;44.12
26823;BME280;14852;51.910;8.878;2022-07-01T12:45:15;99934.94;;;24.62;44.01
26823;BME280;14852;51.910;8.878;2022-07-01T12:47:54;99938.09;;;24.98;43.40
26823;BME280;14852;51.910;8.878;2022-07-01T12:50:29;99930.72;;;25.33;42.44
26823;BME280;14852;51.910;8.878;2022-07-01T12:55:36;99919.38;;;25.86;41.21
26823;BME280;14852;51.910;8.878;2022-07-01T12:58:05;99921.44;;;25.76;41.35
26823;BME280;14852;51.910;8.878;2022-07-01T13:00:31;99938.41;;;25.75;41.51
26823;BME280;14852;51.910;8.878;2022-07-01T13:02:59;99932.66;;;25.94;40.78
26823;BME280;14852;51.910;8.878;2022-07-01T13:05:27;99938.44;;;25.97;40.70
26823;BME280;14852;51.910;8.878;2022-07-01T13:07:53;99934.84;;;25.90;40.98
26823;BME280;14852;51.910;8.878;2022-07-01T13:10:20;99942.16;;;25.88;41.10
26823;BME280;14852;51.910;8.878;2022-07-01T13:12:46;99938.66;;;25.88;40.78
26823;BME280;14852;51.910;8.878;2022-07-01T13:15:14;99928.69;;;25.90;41.12
26823;BME280;14852;51.910;8.878;2022-07-01T13:17:40;99937.44;;;25.98;40.66
26823;BME280;14852;51.910;8.878;2022-07-01T13:20:07;99930.16;;;25.92;40.30
26823;BME280;14852;51.910;8.878;2022-07-01T13:22:34;99931.50;;;25.88;40.55
26823;BME280;14852;51.910;8.878;2022-07-01T13:25:00;99935.50;;;25.92;40.99
26823;BME280;14852;51.910;8.878;2022-07-01T13:27:27;99940.09;;;25.98;41.01